Time;durP1;ratioP1;P1;durP2;ratioP2;P2;SDS_P1;SDS_P2;PMS_P1;PMS_P2;Temp;Humidity;BMP_temperature;BMP_pressure;BME280_temperature;BME280_humidity;BME280_pressure;Samples;Min_cycle;Max_cycle;Signal;HPM_P1;HPM_P2
2022/09/02 00:02:23;;;;;;;1.38;0.43;;;;;;;10.96;67.47;99020.56;5084392;28;20264;-63
2022/09/02 00:04:49;;;;;;;1.13;0.60;;;;;;;10.97;66.11;99016.22;5084167;28;20035;-61
2022/09/02 00:07:14;;;;;;;1.05;0.50;;;;;;;10.99;66.65;99017.88;5094917;28;20029;-61
2022/09/02 00:09:40;;;;;;;0.70;0.50;;;;;;;10.98;66.33;99020.50;5085403;28;20351;-62
2022/09/02 00:12:07;;;;;;;0.50;0.50;;;;;;;10.91;66.87;99016.44;5089130;28;20036;-63
2022/09/02 00:14:35;;;;;;;2.63;0.50;;;;;;;10.63;67.05;98976.78;5100387;28;20059;-62
2022/09/02 00:17:03;;;;;;;1.17;0.60;;;;;;;10.56;67.08;98971.84;5085180;28;20326;-64
2022/09/02 00:19:29;;;;;;;0.60;0.60;;;;;;;10.87;67.24;99016.56;5085092;28;20086;-63
2022/09/02 00:21:56;;;;;;;3.15;0.65;;;;;;;10.86;67.04;99017.44;5084039;28;20024;-64
2022/09/02 00:24:23;;;;;;;1.17;0.60;;;;;;;10.95;67.15;99025.81;5084940;28;20032;-64
2022/09/02 00:26:49;;;;;;;0.47;0.43;;;;;;;10.92;67.22;99029.34;5067226;28;20024;-64
2022/09/02 00:29:16;;;;;;;0.60;0.60;;;;;;;10.82;67.54;99017.59;5085117;28;20108;-62
2022/09/02 00:31:44;;;;;;;1.27;0.60;;;;;;;10.57;67.13;98970.94;5084685;28;20032;-63
2022/09/02 00:34:10;;;;;;;0.45;0.40;;;;;;;10.96;67.05;99024.88;5084963;28;20078;-61
2022/09/02 00:36:37;;;;;;;1.98;0.52;;;;;;;11.01;66.80;99029.00;5084467;28;20069;-62
2022/09/02 00:39:06;;;;;;;0.60;0.60;;;;;;;10.69;67.37;98981.75;5084849;28;20025;-61
2022/09/02 00:41:32;;;;;;;0.50;0.45;;;;;;;10.93;67.21;99027.59;5084988;28;20020;-61
2022/09/02 00:44:02;;;;;;;0.50;0.50;;;;;;;10.94;67.16;99017.16;5084731;28;20025;-62
2022/09/02 00:46:30;;;;;;;0.80;0.60;;;;;;;10.55;67.24;98967.56;5084813;28;20023;-63
2022/09/02 00:49:13;;;;;;;0.95;0.60;;;;;;;11.01;66.80;99018.66;5084677;28;20104;-63
2022/09/02 00:51:45;;;;;;;0.65;0.65;;;;;;;10.75;66.72;98972.91;5083454;28;20021;-64
2022/09/02 00:54:11;;;;;;;;;;;;;;;10.92;67.45;99024.16;5085052;28;20325;-64
2022/09/02 00:56:40;;;;;;;0.50;0.50;;;;;;;10.90;67.71;99035.47;5071831;28;19909;-64
2022/09/02 00:59:07;;;;;;;2.03;0.70;;;;;;;10.58;68.17;99025.25;5064686;28;20170;-63
2022/09/02 01:01:32;;;;;;;1.27;0.60;;;;;;;10.74;68.29;99035.13;5080084;28;20201;-64
2022/09/02 01:03:58;;;;;;;0.30;0.30;;;;;;;10.77;67.77;99024.66;5083293;28;20020;-63
2022/09/02 01:06:27;;;;;;;0.50;0.50;;;;;;;10.87;67.58;99047.63;5084297;28;20021;-63
2022/09/02 01:09:10;;;;;;;0.50;0.40;;;;;;;10.59;67.60;98992.44;5084374;28;20317;-64
2022/09/02 01:11:40;;;;;;;0.55;0.50;;;;;;;10.87;67.50;99047.63;5084632;28;20021;-63
2022/09/02 01:14:07;;;;;;;2.28;0.50;;;;;;;10.87;66.64;99021.72;5102786;28;20212;-64
2022/09/02 01:16:39;;;;;;;0.70;0.50;;;;;;;10.23;66.17;98912.47;5084321;28;20088;-64
2022/09/02 01:19:13;;;;;;;1.73;0.60;;;;;;;10.68;66.12;98984.38;5083966;28;20029;-64
2022/09/02 01:21:45;;;;;;;0.88;0.60;;;;;;;10.74;66.61;98999.72;5084132;28;20099;-64
2022/09/02 01:24:11;;;;;;;1.77;0.50;;;;;;;10.98;65.96;99023.09;5083897;28;20048;-65
2022/09/02 01:26:37;;;;;;;1.80;0.50;;;;;;;10.87;65.94;99016.56;5077841;28;20059;-64
2022/09/02 01:29:03;;;;;;;0.40;0.40;;;;;;;10.95;65.57;99028.41;5083977;28;20024;-65
2022/09/02 01:31:28;;;;;;;1.00;0.40;;;;;;;10.76;65.14;99031.59;5083655;28;20066;-66
2022/09/02 01:33:54;;;;;;;0.60;0.60;;;;;;;10.84;65.27;99036.50;5080222;28;20040;-67
2022/09/02 01:36:20;;;;;;;1.48;0.50;;;;;;;10.82;65.37;99018.44;5072621;28;20039;-67
2022/09/02 01:38:46;;;;;;;1.38;0.60;;;;;;;10.92;64.91;99047.47;5084246;28;20028;-66
2022/09/02 01:41:11;;;;;;;1.10;0.50;;;;;;;10.86;64.01;99043.34;5104157;28;20028;-63
2022/09/02 01:43:37;;;;;;;1.92;1.52;;;;;;;10.82;63.96;99049.50;5087810;28;20040;-62
2022/09/02 01:46:03;;;;;;;2.42;0.60;;;;;;;10.84;64.24;99046.88;5094769;28;20043;-61
2022/09/02 01:48:28;;;;;;;0.60;0.60;;;;;;;10.83;64.06;99043.44;5087151;28;20089;-61
2022/09/02 01:50:58;;;;;;;3.22;1.33;;;;;;;10.49;64.63;98994.50;5081904;28;20028;-61
2022/09/02 01:53:24;;;;;;;2.58;0.90;;;;;;;10.77;63.88;99059.16;5063387;28;20221;-61
2022/09/02 01:55:50;;;;;;;1.25;0.80;;;;;;;10.71;63.62;99047.25;5075809;28;20036;-62
2022/09/02 01:58:16;;;;;;;2.30;0.70;;;;;;;10.79;63.68;99054.81;5088941;28;20042;-62
2022/09/02 02:00:42;;;;;;;5.18;0.75;;;;;;;10.78;63.06;99053.09;5084935;28;20037;-62
2022/09/02 02:03:07;;;;;;;8.98;2.25;;;;;;;10.84;62.37;99058.06;5082819;28;20047;-63
2022/09/02 02:05:33;;;;;;;1.60;1.33;;;;;;;10.75;62.99;99054.97;5083414;28;20024;-63
2022/09/02 02:07:59;;;;;;;0.85;0.70;;;;;;;10.70;62.82;99066.31;5083143;28;20051;-63
2022/09/02 02:10:25;;;;;;;1.60;1.50;;;;;;;10.74;62.88;99067.03;5083397;28;20027;-63
2022/09/02 02:12:50;;;;;;;1.15;0.95;;;;;;;10.74;62.89;99055.84;5092318;28;20024;-62
2022/09/02 02:15:18;;;;;;;0.52;0.52;;;;;;;10.39;62.74;99009.47;5092193;28;20321;-61
2022/09/02 02:17:44;;;;;;;2.55;0.93;;;;;;;10.75;62.92;99065.31;5083308;28;20026;-64
2022/09/02 02:20:14;;;;;;;1.65;0.60;;;;;;;10.76;62.69;99069.59;5083102;28;20221;-63
2022/09/02 02:22:40;;;;;;;2.20;0.70;;;;;;;10.77;62.83;99063.50;5083123;28;20066;-64
2022/09/02 02:25:06;;;;;;;2.75;1.20;;;;;;;10.81;62.49;99067.69;5082994;28;20032;-64
2022/09/02 02:27:32;;;;;;;2.50;0.50;;;;;;;10.81;62.75;99070.28;5083170;28;20387;-64
2022/09/02 02:29:58;;;;;;;5.00;0.60;;;;;;;10.35;62.29;99075.19;5083176;28;20028;-63
2022/09/02 02:32:25;;;;;;;1.80;0.57;;;;;;;10.58;62.88;99068.44;5083044;28;20047;-63
2022/09/02 02:34:50;;;;;;;0.60;0.60;;;;;;;10.73;62.61;99073.13;5083138;28;20033;-62
2022/09/02 02:37:16;;;;;;;7.75;0.90;;;;;;;10.66;61.95;99062.13;5082827;28;20065;-63
2022/09/02 02:39:42;;;;;;;0.63;0.40;;;;;;;10.71;61.36;99073.16;5082859;28;20032;-61
2022/09/02 02:42:08;;;;;;;2.50;0.65;;;;;;;10.65;61.09;99070.78;5086271;28;20036;-62
2022/09/02 02:44:34;;;;;;;7.47;0.70;;;;;;;10.76;61.15;99078.22;5103412;28;20266;-61
2022/09/02 02:47:00;;;;;;;0.20;0.20;;;;;;;10.75;60.93;99076.50;5084509;28;20032;-61
2022/09/02 02:49:26;;;;;;;0.50;0.50;;;;;;;10.76;61.25;99085.13;5097012;28;20056;-62
2022/09/02 02:51:53;;;;;;;0.68;0.55;;;;;;;10.84;60.44;99081.38;5093992;28;20028;-64
2022/09/02 02:54:19;;;;;;;0.88;0.40;;;;;;;10.58;61.16;99077.03;5082754;28;20028;-65
2022/09/02 02:56:45;;;;;;;3.28;0.70;;;;;;;10.66;61.86;99081.97;5069511;28;20033;-64
2022/09/02 02:59:11;;;;;;;1.27;0.75;;;;;;;10.63;61.57;99090.72;5083713;28;20320;-63
2022/09/02 03:01:37;;;;;;;0.90;0.55;;;;;;;10.69;61.37;99094.84;5086625;28;20024;-63
2022/09/02 03:04:04;;;;;;;2.13;0.60;;;;;;;10.81;61.24;99091.84;5096819;28;20062;-63
2022/09/02 03:06:30;;;;;;;0.47;0.47;;;;;;;10.76;60.65;99091.16;5101056;28;20292;-64
2022/09/02 03:08:56;;;;;;;0.70;0.68;;;;;;;10.87;61.34;99099.44;5086568;28;20028;-63
2022/09/02 03:11:22;;;;;;;1.95;0.60;;;;;;;10.75;61.30;99094.66;5086829;28;20023;-63
2022/09/02 03:13:51;;;;;;;0.52;0.45;;;;;;;10.77;61.61;99100.59;5103343;28;20212;-63
2022/09/02 03:16:18;;;;;;;0.68;0.47;;;;;;;10.75;62.27;99104.16;5086739;28;20024;-64
2022/09/02 03:18:48;;;;;;;2.38;0.45;;;;;;;10.77;62.57;99103.19;5086348;28;20017;-64
2022/09/02 03:21:14;;;;;;;0.70;0.38;;;;;;;10.75;62.53;99105.00;5085199;28;20020;-61
2022/09/02 03:23:41;;;;;;;0.40;0.40;;;;;;;10.73;62.74;99100.75;5085697;28;20028;-62
2022/09/02 03:26:16;;;;;;;1.40;0.40;;;;;;;10.45;62.75;99052.44;5105361;28;20024;-62
2022/09/02 03:28:42;;;;;;;0.80;0.52;;;;;;;10.63;63.71;99095.03;5100028;28;20032;-61
2022/09/02 03:31:15;;;;;;;1.48;0.85;;;;;;;10.34;64.45;99057.94;5095183;28;20028;-63
2022/09/02 03:33:41;;;;;;;0.60;0.50;;;;;;;10.70;64.65;99107.75;5093434;28;20020;-61
2022/09/02 03:36:06;;;;;;;0.60;0.60;;;;;;;10.64;64.78;99107.09;5106248;28;20065;-63
2022/09/02 03:38:34;;;;;;;1.05;0.60;;;;;;;10.56;65.21;99109.06;5067591;28;20071;-62
2022/09/02 03:41:00;;;;;;;1.48;0.50;;;;;;;10.47;65.84;99105.84;5084025;28;20032;-63
2022/09/02 03:43:25;;;;;;;0.68;0.60;;;;;;;10.52;65.31;99114.34;5085719;28;20213;-64
2022/09/02 03:45:51;;;;;;;0.85;0.70;;;;;;;10.48;65.67;99112.72;5084620;28;20036;-61
2022/09/02 03:48:17;;;;;;;0.93;0.60;;;;;;;10.61;65.56;99123.56;5068053;28;20217;-62
2022/09/02 03:50:45;;;;;;;0.40;0.40;;;;;;;10.39;65.36;99078.50;5085775;28;20042;-62
2022/09/02 03:53:12;;;;;;;1.27;0.55;;;;;;;10.67;64.95;99132.88;5085824;28;20024;-62
2022/09/02 03:55:39;;;;;;;0.95;0.50;;;;;;;10.47;65.85;99121.38;5085404;28;20101;-62
2022/09/02 03:58:04;;;;;;;1.73;0.70;;;;;;;10.58;65.21;99125.41;5085878;28;20044;-62
2022/09/02 04:00:32;;;;;;;0.50;0.50;;;;;;;10.60;65.32;99132.22;5085676;28;20033;-63
2022/09/02 04:03:00;;;;;;;0.43;0.43;;;;;;;10.60;65.07;99133.97;5085251;28;20028;-63
2022/09/02 04:05:26;;;;;;;1.67;0.63;;;;;;;10.64;65.09;99133.81;5085643;28;20043;-63
2022/09/02 04:07:52;;;;;;;0.70;0.50;;;;;;;10.77;64.36;99142.06;5085484;28;20094;-63
2022/09/02 04:10:21;;;;;;;1.10;0.70;;;;;;;10.73;64.63;99142.19;5084899;28;20313;-63
2022/09/02 04:12:47;;;;;;;0.65;0.55;;;;;;;10.85;64.41;99141.84;5085129;28;20047;-64
2022/09/02 04:15:13;;;;;;;0.40;0.40;;;;;;;10.86;64.39;99138.34;5085426;28;20087;-63
2022/09/02 04:17:41;;;;;;;2.45;0.60;;;;;;;10.85;64.65;99147.84;5085118;28;20035;-63
2022/09/02 04:20:09;;;;;;;1.30;0.73;;;;;;;10.70;65.31;99137.97;5084888;28;20024;-62
2022/09/02 04:22:35;;;;;;;0.88;0.88;;;;;;;10.77;65.31;99144.63;5085043;28;20028;-62
2022/09/02 04:25:01;;;;;;;0.70;0.50;;;;;;;10.86;64.89;99141.78;5085064;28;20036;-64
2022/09/02 04:27:27;;;;;;;0.55;0.50;;;;;;;10.85;64.70;99150.44;5085422;28;20309;-64
2022/09/02 04:29:52;;;;;;;0.47;0.47;;;;;;;10.74;65.16;99139.56;5085032;28;20070;-63
2022/09/02 04:32:19;;;;;;;0.88;0.60;;;;;;;10.87;64.87;99166.81;5084885;28;20028;-64
2022/09/02 04:34:44;;;;;;;2.20;0.90;;;;;;;10.90;65.18;99159.81;5084827;28;20088;-60
2022/09/02 04:37:12;;;;;;;1.67;0.63;;;;;;;10.91;65.13;99152.00;5084261;28;20098;-62
2022/09/02 04:39:38;;;;;;;2.90;0.70;;;;;;;10.88;65.09;99159.88;5090845;28;20055;-62
2022/09/02 04:42:04;;;;;;;1.90;0.60;;;;;;;10.83;64.42;99134.13;5090059;28;20032;-61
2022/09/02 04:44:29;;;;;;;0.63;0.50;;;;;;;10.97;64.83;99156.13;5105033;28;20028;-62
2022/09/02 04:46:55;;;;;;;1.02;0.73;;;;;;;10.92;63.85;99147.69;5087607;28;20086;-61
2022/09/02 04:49:22;;;;;;;3.35;0.95;;;;;;;10.95;63.87;99166.53;5084668;28;20063;-62
2022/09/02 04:51:47;;;;;;;3.40;0.60;;;;;;;10.99;64.50;99173.34;5084846;28;20224;-61
2022/09/02 04:54:13;;;;;;;0.73;0.55;;;;;;;11.00;64.28;99168.97;5084802;28;20028;-59
2022/09/02 04:56:39;;;;;;;0.93;0.85;;;;;;;10.92;64.29;99169.25;5083999;28;20095;-63
2022/09/02 04:59:06;;;;;;;2.35;0.70;;;;;;;10.80;65.16;99175.66;5084281;28;20028;-64
2022/09/02 05:01:34;;;;;;;3.17;0.70;;;;;;;10.85;65.95;99188.47;5097870;28;20317;-64
2022/09/02 05:04:01;;;;;;;1.45;0.93;;;;;;;10.91;65.59;99188.25;5087752;28;20329;-63
2022/09/02 05:06:27;;;;;;;1.63;0.80;;;;;;;10.87;65.94;99179.75;5084356;28;20021;-63
2022/09/02 05:08:58;;;;;;;0.70;0.70;;;;;;;10.77;65.81;99175.72;5084376;28;20088;-64
2022/09/02 05:11:27;;;;;;;0.80;0.80;;;;;;;10.87;65.79;99187.53;5084227;28;20190;-60
2022/09/02 05:13:55;;;;;;;0.65;0.63;;;;;;;10.60;66.11;99136.56;5083276;28;20040;-61
2022/09/02 05:16:23;;;;;;;1.17;0.65;;;;;;;10.87;66.41;99189.25;5083007;28;20036;-61
2022/09/02 05:18:51;;;;;;;1.25;0.88;;;;;;;10.78;66.66;99185.19;5090761;28;20047;-61
2022/09/02 05:21:17;;;;;;;1.48;0.60;;;;;;;10.81;67.46;99182.50;5087219;28;20024;-61
2022/09/02 05:23:43;;;;;;;0.63;0.63;;;;;;;10.84;68.92;99195.34;5102732;28;20089;-62
2022/09/02 05:26:11;;;;;;;0.70;0.70;;;;;;;10.48;68.96;99138.63;5102095;28;20024;-60
2022/09/02 05:28:39;;;;;;;0.65;0.55;;;;;;;10.87;69.18;99200.47;5087777;28;20048;-60
2022/09/02 05:31:15;;;;;;;0.47;0.47;;;;;;;10.91;68.44;99213.31;5093253;28;20019;-62
2022/09/02 05:33:41;;;;;;;1.80;0.50;;;;;;;10.86;67.92;99200.53;5069938;28;20070;-63
2022/09/02 05:36:11;;;;;;;0.80;0.70;;;;;;;10.65;68.48;99150.22;5083539;28;20052;-61
2022/09/02 05:38:40;;;;;;;2.13;0.57;;;;;;;11.04;68.01;99201.69;5083960;28;20028;-63
2022/09/02 05:41:08;;;;;;;2.50;1.05;;;;;;;11.12;67.79;99191.94;5101837;28;20047;-63
2022/09/02 05:43:35;;;;;;;2.30;0.80;;;;;;;10.98;66.66;99158.66;5090231;28;20035;-62
2022/09/02 05:46:07;;;;;;;0.80;0.80;;;;;;;11.24;67.12;99208.81;5083586;28;20028;-61
2022/09/02 05:51:18;;;;;;;0.88;0.70;;;;;;;11.22;66.35;99208.88;5083613;28;20035;-64
2022/09/02 05:53:43;;;;;;;3.30;0.75;;;;;;;11.21;65.68;99217.53;5083741;28;20076;-62
2022/09/02 05:56:09;;;;;;;3.45;0.80;;;;;;;11.21;65.58;99203.75;5076061;28;20025;-64
2022/09/02 05:58:35;;;;;;;4.03;0.80;;;;;;;11.18;65.84;99222.00;5090985;28;20071;-64
2022/09/02 06:01:10;;;;;;;1.67;0.77;;;;;;;10.97;65.40;99177.69;5103642;28;20046;-63
2022/09/02 06:03:37;;;;;;;2.70;0.50;;;;;;;11.28;65.08;99217.38;5075977;28;20099;-63
2022/09/02 06:06:04;;;;;;;0.80;0.80;;;;;;;11.12;64.82;99219.59;5083291;28;20032;-63
2022/09/02 06:08:29;;;;;;;3.15;0.70;;;;;;;11.27;64.90;99231.22;5083224;28;20086;-62
2022/09/02 06:10:55;;;;;;;2.05;0.85;;;;;;;11.16;65.45;99228.94;5083069;28;20032;-64
2022/09/02 06:13:21;;;;;;;3.97;0.80;;;;;;;11.28;65.09;99225.97;5083139;28;20251;-65
2022/09/02 06:15:50;;;;;;;2.80;0.75;;;;;;;11.22;64.79;99233.97;5081703;28;20033;-65
2022/09/02 06:18:16;;;;;;;2.65;0.85;;;;;;;11.25;65.38;99243.38;5083137;28;20028;-64
2022/09/02 06:20:44;;;;;;;2.42;0.70;;;;;;;11.03;66.26;99249.22;5082953;28;20087;-64
2022/09/02 06:23:11;;;;;;;1.08;0.60;;;;;;;11.17;65.35;99231.53;5082948;28;20024;-63
2022/09/02 06:25:38;;;;;;;3.10;0.75;;;;;;;11.17;65.92;99235.84;5096642;28;20129;-62
2022/09/02 06:28:04;;;;;;;1.88;0.70;;;;;;;11.29;64.74;99238.06;5094309;28;20020;-63
2022/09/02 06:30:30;;;;;;;1.88;0.75;;;;;;;11.28;65.01;99248.47;5082933;28;20104;-62
2022/09/02 06:32:55;;;;;;;0.93;0.55;;;;;;;11.25;64.72;99254.59;5082906;28;20066;-62
2022/09/02 06:35:21;;;;;;;1.77;0.80;;;;;;;11.00;65.62;99260.53;5086290;28;20027;-63
2022/09/02 06:37:47;;;;;;;1.02;0.68;;;;;;;11.16;65.65;99262.63;5086967;28;20048;-63
2022/09/02 06:40:13;;;;;;;6.18;1.38;;;;;;;11.12;65.12;99256.72;5086948;28;20024;-62
2022/09/02 06:42:39;;;;;;;3.00;0.70;;;;;;;11.08;65.31;99264.63;5086773;28;20022;-61
2022/09/02 06:45:05;;;;;;;0.70;0.50;;;;;;;11.18;64.48;99266.88;5086803;28;20040;-61
2022/09/02 06:47:31;;;;;;;3.08;0.90;;;;;;;10.95;64.22;99248.63;5086714;28;20028;-62
2022/09/02 06:49:58;;;;;;;2.03;0.60;;;;;;;11.04;63.64;99261.28;5086858;28;20063;-62
2022/09/02 06:52:24;;;;;;;3.28;0.82;;;;;;;11.25;63.76;99269.31;5086553;28;20035;-62
2022/09/02 06:54:53;;;;;;;0.93;0.50;;;;;;;11.34;63.13;99269.00;5086088;28;20032;-63
2022/09/02 06:57:20;;;;;;;5.88;1.00;;;;;;;11.26;63.39;99263.22;5078831;28;20277;-62
2022/09/02 06:59:46;;;;;;;3.13;0.90;;;;;;;11.39;62.39;99272.31;5085366;28;20025;-64
2022/09/02 07:02:13;;;;;;;1.92;0.70;;;;;;;11.36;62.52;99273.25;5084815;28;20021;-65
2022/09/02 07:07:24;;;;;;;4.63;1.10;;;;;;;11.39;62.83;99293.06;5085186;28;20096;-61
2022/09/02 07:09:50;;;;;;;3.95;0.80;;;;;;;11.52;62.80;99289.16;5083808;28;20036;-63
2022/09/02 07:12:16;;;;;;;6.13;1.20;;;;;;;11.67;62.91;99287.84;5082967;28;20033;-63
2022/09/02 07:14:43;;;;;;;1.15;0.75;;;;;;;11.51;62.93;99291.81;5085867;28;20024;-62
2022/09/02 07:17:11;;;;;;;3.55;1.00;;;;;;;11.50;62.57;99295.28;5085264;28;20031;-63
2022/09/02 07:19:37;;;;;;;3.70;0.80;;;;;;;11.58;62.58;99285.53;5101950;28;20012;-61
2022/09/02 07:22:04;;;;;;;2.35;0.75;;;;;;;11.66;62.43;99306.06;5086207;28;20044;-63
2022/09/02 07:24:29;;;;;;;2.20;0.70;;;;;;;11.77;62.76;99303.94;5086260;28;20028;-62
2022/09/02 07:26:55;;;;;;;2.60;1.10;;;;;;;11.65;62.30;99296.56;5086137;28;20048;-63
2022/09/02 07:29:21;;;;;;;4.40;0.80;;;;;;;11.77;61.70;99301.34;5086157;28;20020;-60
2022/09/02 07:31:47;;;;;;;2.08;0.70;;;;;;;11.90;61.39;99296.63;5085873;28;20025;-61
2022/09/02 07:34:14;;;;;;;2.50;0.85;;;;;;;12.11;59.83;99302.84;5085879;28;20029;-62
2022/09/02 07:36:41;;;;;;;2.15;0.80;;;;;;;12.25;59.25;99302.38;5081834;28;20112;-62
2022/09/02 07:39:09;;;;;;;3.63;0.73;;;;;;;12.25;60.03;99259.09;5094199;28;20033;-64
2022/09/02 07:41:36;;;;;;;5.95;0.93;;;;;;;11.96;59.79;99260.09;5067741;28;20035;-62
2022/09/02 07:44:04;;;;;;;1.42;0.77;;;;;;;12.06;59.26;99299.56;5080799;28;20035;-62
2022/09/02 07:46:31;;;;;;;3.70;0.73;;;;;;;12.17;60.05;99301.78;5084527;28;20213;-61
2022/09/02 07:49:02;;;;;;;2.58;1.00;;;;;;;12.16;59.03;99307.91;5084414;28;20031;-63
2022/09/02 07:51:28;;;;;;;;;;;;;;;12.14;58.46;99309.69;5086204;28;20024;-62
2022/09/02 07:53:54;;;;;;;2.17;0.82;;;;;;;12.21;58.79;99299.06;5084221;28;19967;-63
2022/09/02 07:56:19;;;;;;;3.42;0.90;;;;;;;12.16;59.47;99311.34;5077498;28;20024;-63
2022/09/02 07:58:45;;;;;;;4.97;1.02;;;;;;;11.79;59.60;99324.66;5086038;28;20117;-63
2022/09/02 08:01:12;;;;;;;7.40;1.30;;;;;;;11.90;59.39;99325.16;5079126;28;20032;-63
2022/09/02 08:03:40;;;;;;;8.77;1.13;;;;;;;11.82;59.30;99270.91;5080044;28;20029;-62
2022/09/02 08:06:07;;;;;;;4.20;0.85;;;;;;;12.39;59.08;99305.34;5085399;28;20108;-64
2022/09/02 08:08:33;;;;;;;7.63;1.30;;;;;;;12.51;58.80;99317.06;5084780;28;20099;-63
2022/09/02 08:10:59;;;;;;;3.20;0.90;;;;;;;12.52;58.12;99313.56;5087498;28;20024;-64
2022/09/02 08:13:25;;;;;;;9.73;1.25;;;;;;;12.51;58.24;99319.66;5085113;28;20044;-62
2022/09/02 08:15:51;;;;;;;6.43;0.85;;;;;;;12.58;58.25;99315.94;5084802;28;20074;-62
2022/09/02 08:18:18;;;;;;;5.82;0.90;;;;;;;12.55;58.09;99307.41;5084908;28;20053;-62
2022/09/02 08:20:43;;;;;;;4.60;1.30;;;;;;;12.71;58.34;99333.69;5080434;28;20020;-64
2022/09/02 08:23:10;;;;;;;3.90;0.70;;;;;;;12.45;61.25;99334.59;5090573;28;20266;-65
2022/09/02 08:25:36;;;;;;;2.20;0.70;;;;;;;12.26;61.92;99341.28;5085004;28;20032;-65
2022/09/02 08:28:02;;;;;;;4.50;0.60;;;;;;;12.16;62.37;99341.66;5084973;28;20048;-65
2022/09/02 08:30:28;;;;;;;2.35;0.80;;;;;;;12.07;63.30;99354.03;5088302;28;20020;-63
2022/09/02 08:32:54;;;;;;;1.42;0.60;;;;;;;12.18;63.24;99360.59;5078306;28;20025;-63
2022/09/02 08:35:19;;;;;;;1.75;1.00;;;;;;;12.02;63.78;99316.16;5082421;28;20276;-62
2022/09/02 08:37:45;;;;;;;2.08;1.00;;;;;;;12.42;65.50;99353.75;5083205;28;20036;-63
2022/09/02 08:40:19;;;;;;;2.53;0.80;;;;;;;12.54;61.95;99368.03;5094080;28;20020;-61
2022/09/02 08:42:52;;;;;;;1.15;0.90;;;;;;;12.57;61.43;99353.22;5098527;28;20084;-62
2022/09/02 08:45:34;;;;;;;2.85;0.80;;;;;;;12.68;61.09;99360.59;5086296;28;20320;-61
2022/09/02 08:47:59;;;;;;;;;;;;;;;12.51;61.27;99370.75;5105722;28;20054;-61
2022/09/02 08:50:25;;;;;;;2.80;0.80;;;;;;;12.42;62.49;99361.53;5105067;28;20124;-62
2022/09/02 08:53:02;;;;;;;5.70;1.10;;;;;;;12.08;65.20;99302.97;5104814;28;20389;-61
2022/09/02 08:55:36;;;;;;;2.38;0.82;;;;;;;12.36;64.21;99352.19;5092932;28;20028;-62
2022/09/02 08:58:02;;;;;;;1.48;0.90;;;;;;;12.33;65.07;99359.25;5082944;28;20044;-60
2022/09/02 09:00:34;;;;;;;3.08;0.80;;;;;;;12.32;64.25;99386.13;5104843;28;20051;-60
2022/09/02 09:03:11;;;;;;;2.85;0.90;;;;;;;12.31;63.19;99381.81;5090113;28;20060;-63
2022/09/02 09:05:55;;;;;;;2.25;1.20;;;;;;;12.32;66.18;99388.72;5081184;28;20036;-60
2022/09/02 09:08:24;;;;;;;4.55;1.60;;;;;;;12.19;67.82;99386.53;5082612;28;20036;-62
2022/09/02 09:11:09;;;;;;;2.17;1.30;;;;;;;11.94;68.50;99341.50;5083161;28;20040;-61
2022/09/02 09:13:49;;;;;;;5.97;1.80;;;;;;;12.15;68.50;99399.66;5083110;28;20028;-62
2022/09/02 09:16:26;;;;;;;4.00;1.50;;;;;;;11.85;70.22;99405.72;5079566;28;20317;-60
2022/09/02 09:19:01;;;;;;;3.08;1.30;;;;;;;11.90;69.50;99418.59;5082734;28;20337;-61
2022/09/02 09:21:30;;;;;;;1.45;0.90;;;;;;;11.30;71.45;99363.31;5081530;28;20025;-61
2022/09/02 09:23:58;;;;;;;2.75;1.60;;;;;;;11.67;70.84;99429.66;5080031;28;20020;-63
2022/09/02 09:26:31;;;;;;;0.80;0.73;;;;;;;11.69;70.69;99436.50;5082342;28;20051;-63
2022/09/02 09:28:58;;;;;;;1.75;0.80;;;;;;;11.81;70.83;99429.22;5085337;28;20028;-63
2022/09/02 09:31:29;;;;;;;1.10;0.80;;;;;;;11.95;72.50;99392.50;5079349;28;20033;-61
2022/09/02 09:33:58;;;;;;;2.33;0.85;;;;;;;12.37;71.85;99426.63;5062182;28;20019;-62
2022/09/02 09:36:39;;;;;;;0.77;0.70;;;;;;;12.49;70.64;99430.53;5098325;28;20025;-62
2022/09/02 09:39:18;;;;;;;4.88;1.52;;;;;;;12.66;69.65;99426.53;5097532;28;20028;-61
2022/09/02 09:41:46;;;;;;;2.47;1.08;;;;;;;12.68;72.06;99433.34;5078977;28;20074;-63
2022/09/02 09:44:37;;;;;;;2.00;0.90;;;;;;;12.57;71.57;99433.75;5081365;28;20025;-62
2022/09/02 09:47:09;;;;;;;2.95;1.10;;;;;;;12.43;69.50;99417.78;5081628;28;20479;-63
2022/09/02 09:49:37;;;;;;;2.28;1.13;;;;;;;12.42;68.90;99440.28;5081625;28;20083;-62
2022/09/02 09:52:04;;;;;;;0.90;0.90;;;;;;;12.50;68.44;99437.44;5082232;28;20086;-64
2022/09/02 09:54:30;;;;;;;2.67;0.98;;;;;;;12.51;69.35;99440.88;5082099;28;20263;-61
2022/09/02 09:57:12;;;;;;;6.60;1.17;;;;;;;12.44;67.37;99429.84;5080627;28;20028;-61
2022/09/02 09:59:46;;;;;;;;;;;;;;;12.54;66.80;99446.84;5082492;28;20091;-61
2022/09/02 10:02:21;;;;;;;3.85;1.20;;;;;;;12.31;67.31;99397.41;5080361;28;19987;-63
2022/09/02 10:04:47;;;;;;;1.75;1.30;;;;;;;12.74;69.50;99438.38;5081498;28;20329;-62
2022/09/02 10:07:13;;;;;;;2.55;0.98;;;;;;;12.94;68.17;99445.47;5081248;28;20027;-62
2022/09/02 10:09:39;;;;;;;3.40;0.80;;;;;;;12.88;64.39;99434.44;5081194;28;20024;-61
2022/09/02 10:12:12;;;;;;;1.23;0.70;;;;;;;12.91;63.55;99466.38;5081663;28;20246;-62
2022/09/02 10:14:42;;;;;;;1.35;0.60;;;;;;;12.88;64.08;99463.88;5079277;28;20025;-62
2022/09/02 10:17:39;;;;;;;4.30;0.90;;;;;;;12.68;66.35;99467.13;5082127;28;20320;-62
2022/09/02 10:20:21;;;;;;;1.50;0.75;;;;;;;12.43;69.98;99470.56;5060256;28;20036;-63
2022/09/02 10:23:05;;;;;;;2.72;0.80;;;;;;;12.39;69.59;99468.13;5093617;28;20069;-63
2022/09/02 10:25:58;;;;;;;1.73;0.77;;;;;;;12.62;70.59;99471.72;5089298;28;20051;-63
2022/09/02 10:28:52;;;;;;;1.83;0.80;;;;;;;12.65;71.47;99475.03;5080523;28;20343;-62
2022/09/02 10:31:53;;;;;;;0.90;0.90;;;;;;;12.56;72.28;99481.41;5082716;28;20220;-61
2022/09/02 10:34:27;;;;;;;3.67;0.95;;;;;;;12.55;73.25;99484.88;5070853;28;20110;-62
2022/09/02 10:37:10;;;;;;;0.93;0.63;;;;;;;12.69;69.99;99483.59;5083055;28;20024;-64
2022/09/02 10:40:07;;;;;;;3.25;0.60;;;;;;;12.70;68.04;99480.94;5081008;28;20036;-62
2022/09/02 10:42:54;;;;;;;0.88;0.65;;;;;;;12.94;69.62;99481.84;5080703;28;20020;-62
2022/09/02 10:45:29;;;;;;;2.95;0.70;;;;;;;12.71;68.85;99473.97;5080124;28;20024;-64
2022/09/02 10:47:57;;;;;;;2.40;0.68;;;;;;;12.90;67.23;99479.44;5082428;28;20255;-61
2022/09/02 10:50:37;;;;;;;1.40;0.77;;;;;;;12.99;66.41;99473.06;5082571;28;20313;-61
2022/09/02 10:53:16;;;;;;;2.20;0.90;;;;;;;13.02;65.98;99470.34;5081654;28;20078;-63
2022/09/02 10:56:08;;;;;;;2.78;0.80;;;;;;;12.94;65.37;99492.25;5074376;28;20397;-63
2022/09/02 10:58:42;;;;;;;4.50;0.82;;;;;;;12.72;63.82;99506.88;5075852;28;20044;-65
2022/09/02 11:01:17;;;;;;;4.53;1.10;;;;;;;12.46;67.63;99528.50;5069737;28;20056;-63
2022/09/02 11:04:03;;;;;;;3.65;1.17;;;;;;;12.01;68.51;99535.06;5081232;28;20066;-65
2022/09/02 11:06:34;;;;;;;8.80;1.40;;;;;;;12.03;70.44;99525.50;5079454;28;20028;-65
2022/09/02 11:09:26;;;;;;;1.85;0.80;;;;;;;11.95;70.45;99524.88;5082778;28;20039;-63
2022/09/02 11:12:04;;;;;;;3.92;0.93;;;;;;;11.85;72.47;99513.88;5079777;28;20127;-64
2022/09/02 11:14:50;;;;;;;1.48;0.95;;;;;;;11.66;72.53;99490.22;5081581;28;20021;-65
2022/09/02 11:17:24;;;;;;;4.25;1.08;;;;;;;11.92;73.52;99533.56;5075798;28;20122;-65
2022/09/02 11:20:08;;;;;;;3.75;1.30;;;;;;;11.90;74.82;99528.41;5082712;28;20331;-65
2022/09/02 11:22:47;;;;;;;3.35;0.93;;;;;;;11.70;74.52;99482.31;5086117;28;20225;-64
2022/09/02 11:25:20;;;;;;;3.58;1.10;;;;;;;11.92;73.86;99537.00;5086406;28;20221;-64
2022/09/02 11:28:05;;;;;;;2.78;0.82;;;;;;;11.57;75.25;99463.66;5086163;28;20032;-63
2022/09/02 11:30:42;;;;;;;1.80;1.02;;;;;;;11.73;75.03;99502.13;5082130;28;20025;-64
2022/09/02 11:33:27;;;;;;;2.55;1.00;;;;;;;11.94;74.74;99568.13;5080084;28;20028;-65
2022/09/02 11:35:53;;;;;;;3.60;1.00;;;;;;;11.83;75.87;99547.66;5086303;28;20052;-63
2022/09/02 11:38:51;;;;;;;4.95;1.50;;;;;;;12.00;73.93;99554.97;5087909;28;20062;-63
2022/09/02 11:41:28;;;;;;;3.40;1.30;;;;;;;12.04;76.25;99546.22;5069141;28;20276;-61
2022/09/02 11:44:13;;;;;;;4.47;1.70;;;;;;;12.07;78.93;99550.44;5085920;28;20028;-62
2022/09/02 11:47:03;;;;;;;4.25;1.48;;;;;;;12.12;77.63;99543.38;5084798;28;20306;-61
2022/09/02 11:49:40;;;;;;;2.25;1.52;;;;;;;12.20;74.52;99545.72;5084137;28;20032;-64
2022/09/02 11:52:27;;;;;;;3.15;1.13;;;;;;;12.15;73.08;99550.22;5083326;28;20059;-64